createdAt,value
2022-09-20T00:01:10.002Z,82.64
2022-09-20T00:03:39.691Z,83.19
2022-09-20T00:06:09.308Z,82.86
2022-09-20T00:08:36.757Z,83.06
2022-09-20T00:11:07.340Z,83.11
2022-09-20T00:13:36.294Z,83.01
2022-09-20T00:16:11.495Z,83.05
2022-09-20T00:18:38.857Z,83.31
2022-09-20T00:21:06.650Z,82.82
2022-09-20T00:23:34.536Z,83.13
2022-09-20T00:26:06.027Z,82.67
2022-09-20T00:28:34.821Z,83.20
2022-09-20T00:31:02.209Z,82.98
2022-09-20T00:33:49.254Z,83.48
2022-09-20T00:36:16.677Z,83.72
2022-09-20T00:38:43.967Z,83.15
2022-09-20T00:41:11.492Z,83.55
2022-09-20T00:49:06.569Z,83.98
2022-09-20T00:51:39.230Z,84.14
2022-09-20T00:54:10.340Z,84.04
2022-09-20T00:56:44.215Z,84.66
2022-09-20T00:59:35.712Z,83.95
2022-09-20T01:04:47.039Z,83.94
2022-09-20T01:07:17.056Z,84.28
2022-09-20T01:09:44.273Z,83.89
2022-09-20T01:12:18.370Z,84.13
2022-09-20T01:14:49.319Z,83.83
2022-09-20T01:17:19.520Z,84.19
2022-09-20T01:20:00.367Z,83.55
2022-09-20T01:25:37.565Z,84.06
2022-09-20T01:28:04.822Z,83.74
2022-09-20T01:30:42.885Z,83.46
2022-09-20T01:35:53.199Z,83.87
2022-09-20T01:41:29.470Z,84.37
2022-09-20T01:44:07.818Z,84.34
2022-09-20T01:46:36.783Z,84.36
2022-09-20T02:03:54.276Z,84.54
2022-09-20T02:09:55.502Z,84.74
2022-09-20T02:18:03.994Z,84.60
2022-09-20T02:21:10.739Z,84.38
2022-09-20T02:38:19.154Z,84.39
2022-09-20T02:41:25.915Z,84.52
2022-09-20T02:49:27.003Z,83.85
2022-09-20T02:52:21.123Z,84.26
2022-09-20T02:55:18.147Z,83.82
2022-09-20T02:58:00.126Z,83.98
2022-09-20T03:00:37.664Z,84.49
2022-09-20T03:03:34.384Z,83.92
2022-09-20T03:12:04.063Z,84.37
2022-09-20T03:14:38.724Z,84.05
2022-09-20T03:17:42.717Z,83.95
2022-09-20T03:20:49.502Z,84.11
2022-09-20T03:26:32.515Z,84.06
2022-09-20T03:35:23.401Z,84.45
2022-09-20T03:43:47.123Z,84.41
2022-09-20T03:46:21.988Z,84.38
2022-09-20T04:05:19.772Z,84.97
2022-09-20T04:08:14.361Z,84.94
2022-09-20T04:11:06.282Z,84.66
2022-09-20T04:13:40.381Z,84.89
2022-09-20T04:16:22.696Z,84.89
2022-09-20T04:18:58.855Z,84.98
2022-09-20T04:24:22.327Z,84.84
2022-09-20T04:26:57.205Z,84.69
2022-09-20T04:38:14.203Z,84.13
2022-09-20T04:47:19.191Z,82.80
2022-09-20T04:50:19.644Z,82.73
2022-09-20T04:56:00.858Z,83.10
2022-09-20T05:04:28.124Z,82.96
2022-09-20T05:10:16.811Z,82.95
2022-09-20T05:30:14.988Z,81.70
2022-09-20T05:33:10.819Z,80.49
2022-09-20T05:47:41.266Z,79.95
2022-09-20T05:58:38.984Z,78.63
2022-09-20T06:01:23.266Z,78.15
2022-09-20T06:04:06.054Z,78.67
2022-09-20T06:07:04.391Z,77.77
2022-09-20T06:21:27.316Z,76.89
2022-09-20T06:24:01.373Z,77.47
2022-09-20T06:26:36.924Z,77.05
2022-09-20T06:29:11.821Z,77.09
2022-09-20T06:31:39.003Z,77.30
2022-09-20T06:34:10.384Z,76.70
2022-09-20T06:37:03.228Z,76.68
2022-09-20T06:42:27.005Z,76.52
2022-09-20T06:44:54.607Z,75.82
2022-09-20T06:47:23.331Z,75.30
2022-09-20T06:49:50.757Z,76.23
2022-09-20T06:52:21.140Z,76.39
2022-09-20T06:54:52.172Z,74.99
2022-09-20T06:57:27.017Z,74.81
2022-09-20T06:59:54.135Z,75.37
2022-09-20T07:02:21.393Z,75.78
2022-09-20T07:04:48.536Z,75.51
2022-09-20T07:07:19.458Z,76.07
2022-09-20T07:09:46.662Z,75.87
2022-09-20T07:12:14.071Z,75.97
2022-09-20T07:14:41.886Z,74.19
2022-09-20T07:17:09.023Z,74.22
2022-09-20T07:19:37.029Z,74.50
2022-09-20T07:22:04.304Z,74.28
2022-09-20T07:24:32.504Z,73.67
2022-09-20T07:27:02.053Z,73.10
2022-09-20T07:29:29.806Z,73.83
2022-09-20T07:31:57.528Z,73.87
2022-09-20T07:34:25.138Z,73.10
2022-09-20T07:36:52.562Z,73.22
2022-09-20T07:39:20.366Z,72.72
2022-09-20T07:41:51.519Z,72.56
2022-09-20T07:44:25.174Z,71.97
2022-09-20T07:46:54.285Z,71.71
2022-09-20T07:49:23.059Z,71.47
2022-09-20T07:51:50.845Z,71.11
2022-09-20T07:54:18.313Z,71.03
2022-09-20T07:56:46.427Z,71.11
2022-09-20T07:59:14.295Z,71.27
2022-09-20T08:01:42.578Z,71.51
2022-09-20T08:04:10.570Z,71.98
2022-09-20T08:06:40.297Z,72.40
2022-09-20T08:09:11.071Z,72.35
2022-09-20T08:11:39.789Z,71.93
2022-09-20T08:14:09.028Z,71.47
2022-09-20T08:16:40.169Z,71.96
2022-09-20T08:19:07.682Z,71.91
2022-09-20T08:21:36.079Z,71.91
2022-09-20T08:24:04.223Z,71.45
2022-09-20T08:26:31.877Z,71.96
2022-09-20T08:29:00.429Z,71.34
2022-09-20T08:31:37.102Z,71.47
2022-09-20T08:34:06.957Z,71.51
2022-09-20T08:36:37.370Z,71.16
2022-09-20T08:44:35.790Z,70.52
2022-09-20T08:47:17.455Z,70.74
2022-09-20T08:49:46.375Z,70.75
2022-09-20T08:52:19.631Z,70.70
2022-09-20T08:54:47.123Z,70.90
2022-09-20T08:57:17.841Z,71.38
2022-09-20T08:59:45.393Z,70.73
2022-09-20T09:02:19.778Z,70.50
2022-09-20T09:04:53.978Z,71.03
2022-09-20T09:07:24.597Z,70.72
2022-09-20T09:09:54.604Z,70.50
2022-09-20T09:12:26.190Z,69.84
2022-09-20T09:14:59.547Z,69.89
2022-09-20T09:17:29.416Z,70.45
2022-09-20T09:30:47.942Z,69.81
2022-09-20T09:38:45.800Z,70.11
2022-09-20T09:41:37.131Z,69.50
2022-09-20T09:46:41.833Z,70.12
2022-09-20T09:49:19.594Z,69.97
2022-09-20T09:52:15.049Z,69.30
2022-09-20T10:00:27.487Z,70.79
2022-09-20T10:09:27.622Z,70.67
2022-09-20T10:15:10.589Z,70.52
2022-09-20T10:18:17.511Z,70.57
2022-09-20T10:21:25.351Z,70.87
2022-09-20T10:35:08.789Z,70.36
2022-09-20T10:43:24.485Z,70.17
2022-09-20T10:46:31.899Z,70.22
2022-09-20T10:49:14.159Z,70.40
2022-09-20T10:51:53.344Z,71.05
2022-09-20T10:57:26.360Z,70.74
2022-09-20T11:02:43.237Z,70.99
2022-09-20T11:16:11.311Z,68.91
2022-09-20T11:24:08.170Z,69.26
2022-09-20T11:26:42.574Z,68.90
2022-09-20T11:32:13.774Z,69.32
2022-09-20T11:37:34.140Z,69.75
2022-09-20T11:40:26.980Z,68.98
2022-09-20T11:42:59.236Z,68.78
2022-09-20T11:45:28.957Z,68.38
2022-09-20T11:48:03.351Z,68.43
2022-09-20T11:50:51.815Z,68.12
2022-09-20T11:58:48.528Z,68.11
2022-09-20T12:01:28.549Z,67.85
2022-09-20T12:04:27.702Z,67.26
2022-09-20T12:06:48.156Z,67.26
2022-09-20T12:09:37.179Z,66.07
2022-09-20T12:12:34.274Z,66.60
2022-09-20T12:15:05.711Z,67.00
2022-09-20T12:29:05.256Z,67.81
2022-09-20T12:39:32.215Z,66.21
2022-09-20T12:42:03.106Z,66.47
2022-09-20T12:47:27.068Z,66.78
2022-09-20T12:50:18.025Z,66.76
2022-09-20T12:55:53.115Z,66.87
2022-09-20T12:58:24.587Z,66.55
2022-09-20T13:03:47.616Z,66.85
2022-09-20T13:09:09.768Z,66.90
2022-09-20T13:14:20.876Z,66.40
2022-09-20T13:17:14.369Z,67.01
2022-09-20T13:19:45.355Z,67.18
2022-09-20T13:24:56.014Z,67.93
2022-09-20T13:27:30.138Z,67.65
2022-09-20T13:30:10.531Z,67.40
2022-09-20T13:32:41.909Z,68.46
2022-09-20T13:38:07.788Z,67.79
2022-09-20T13:40:41.173Z,68.44
2022-09-20T13:43:38.364Z,68.62
2022-09-20T13:46:17.266Z,68.51
2022-09-20T13:48:49.125Z,68.55
2022-09-20T13:51:20.273Z,68.62
2022-09-20T13:53:47.879Z,68.82
2022-09-20T13:56:22.981Z,68.94
2022-09-20T13:58:51.771Z,68.30
2022-09-20T14:01:32.996Z,68.75
2022-09-20T14:04:07.521Z,69.63
2022-09-20T14:06:35.911Z,69.41
2022-09-20T14:09:10.702Z,69.68
2022-09-20T14:11:39.972Z,70.45
2022-09-20T14:14:08.267Z,70.10
2022-09-20T14:16:40.154Z,70.21
2022-09-20T14:19:08.529Z,70.40
2022-09-20T14:21:37.649Z,71.24
2022-09-20T14:27:03.578Z,71.34
2022-09-20T14:35:18.803Z,72.48
2022-09-20T14:40:29.585Z,73.24
2022-09-20T14:45:41.555Z,73.40
2022-09-20T14:53:48.831Z,74.38
2022-09-20T14:56:17.565Z,75.08
2022-09-20T14:59:06.919Z,74.54
2022-09-20T15:01:36.195Z,75.00
2022-09-20T15:04:10.072Z,75.17
2022-09-20T15:06:40.368Z,75.17
2022-09-20T15:09:11.124Z,75.49
2022-09-20T15:11:38.715Z,75.38
2022-09-20T15:14:06.059Z,75.66
2022-09-20T15:16:33.795Z,75.54
2022-09-20T15:19:01.330Z,76.22
2022-09-20T15:21:28.635Z,76.35
2022-09-20T15:23:56.345Z,76.48
2022-09-20T15:26:23.830Z,76.41
2022-09-20T15:28:51.101Z,76.64
2022-09-20T15:31:20.270Z,76.38
2022-09-20T15:33:47.633Z,76.61
2022-09-20T15:36:14.970Z,77.08
2022-09-20T15:38:42.389Z,76.95
2022-09-20T15:41:10.404Z,77.48
2022-09-20T15:43:37.789Z,77.33
2022-09-20T15:46:24.914Z,78.19
2022-09-20T15:48:52.163Z,77.96
2022-09-20T15:51:19.550Z,77.74
2022-09-20T15:53:54.263Z,78.35
2022-09-20T15:56:24.367Z,78.29
2022-09-20T15:59:01.253Z,77.92
2022-09-20T16:01:33.184Z,78.18
2022-09-20T16:04:00.799Z,78.57
2022-09-20T16:06:28.185Z,78.37
2022-09-20T16:08:56.133Z,79.18
2022-09-20T16:11:24.256Z,78.91
2022-09-20T16:13:57.837Z,78.91
2022-09-20T16:16:26.603Z,79.05
2022-09-20T16:19:14.322Z,79.11
2022-09-20T16:21:43.295Z,79.08
2022-09-20T16:24:12.971Z,79.06
2022-09-20T16:26:41.127Z,79.83
2022-09-20T16:29:08.904Z,80.00
2022-09-20T16:31:48.132Z,79.76
2022-09-20T16:36:58.896Z,79.15
2022-09-20T16:39:28.130Z,79.39
2022-09-20T16:41:57.822Z,80.45
2022-09-20T16:44:25.270Z,79.86
2022-09-20T16:46:54.585Z,79.61
2022-09-20T16:49:22.983Z,79.98
2022-09-20T16:51:50.301Z,79.86
2022-09-20T16:54:18.157Z,80.04
2022-09-20T16:56:48.723Z,80.43
2022-09-20T16:59:24.845Z,80.43
2022-09-20T17:01:52.832Z,79.57
2022-09-20T17:04:21.515Z,80.11
2022-09-20T17:06:50.519Z,80.83
2022-09-20T17:09:19.252Z,81.22
2022-09-20T17:11:50.478Z,81.19
2022-09-20T17:14:20.741Z,80.79
2022-09-20T17:16:49.450Z,80.27
2022-09-20T17:19:20.039Z,80.78
2022-09-20T17:21:50.908Z,80.96
2022-09-20T17:24:20.914Z,80.86
2022-09-20T17:26:49.222Z,80.51
2022-09-20T17:29:18.798Z,80.46
2022-09-20T17:31:54.111Z,80.72
2022-09-20T17:34:23.011Z,80.96
2022-09-20T17:36:51.109Z,80.61
2022-09-20T17:39:18.723Z,81.28
2022-09-20T17:41:48.071Z,81.26
2022-09-20T17:44:16.441Z,80.71
2022-09-20T17:46:47.083Z,81.31
2022-09-20T17:49:16.360Z,81.01
2022-09-20T17:51:46.270Z,81.01
2022-09-20T17:54:14.754Z,81.23
2022-09-20T17:56:43.930Z,80.89
2022-09-20T17:59:12.640Z,81.00
2022-09-20T18:01:40.773Z,81.93
2022-09-20T18:04:13.276Z,82.37
2022-09-20T18:06:44.953Z,81.98
2022-09-20T18:09:20.025Z,82.05
2022-09-20T18:11:51.601Z,81.65
2022-09-20T18:14:21.386Z,82.08
2022-09-20T18:16:51.449Z,81.67
2022-09-20T18:19:18.789Z,81.56
2022-09-20T18:21:46.055Z,81.65
2022-09-20T18:24:13.321Z,81.74
2022-09-20T18:26:40.899Z,81.61
2022-09-20T18:29:16.988Z,81.18
2022-09-20T18:31:48.672Z,81.61
2022-09-20T18:34:18.693Z,81.80
2022-09-20T18:36:51.895Z,82.02
2022-09-20T18:39:22.330Z,81.85
2022-09-20T18:41:50.777Z,82.12
2022-09-20T18:44:18.822Z,82.09
2022-09-20T18:46:50.390Z,81.78
2022-09-20T18:49:18.289Z,81.98
2022-09-20T18:51:46.707Z,81.93
2022-09-20T18:54:14.736Z,81.78
2022-09-20T18:56:44.306Z,82.00
2022-09-20T19:04:59.857Z,82.23
2022-09-20T19:13:12.287Z,82.39
2022-09-20T19:26:30.806Z,83.16
2022-09-20T19:29:00.433Z,83.07
2022-09-20T19:31:32.756Z,82.85
2022-09-20T19:34:03.591Z,83.19
2022-09-20T19:42:42.799Z,82.27
2022-09-20T19:45:49.794Z,82.39
2022-09-20T19:48:32.874Z,82.72
2022-09-20T19:51:04.465Z,83.62
2022-09-20T19:53:32.037Z,83.25
2022-09-20T19:58:43.538Z,83.04
2022-09-20T20:01:11.189Z,82.99
2022-09-20T20:03:39.315Z,82.96
2022-09-20T20:06:22.793Z,82.96
2022-09-20T20:09:00.222Z,82.85
2022-09-20T20:12:07.128Z,82.66
2022-09-20T20:18:05.138Z,83.34
2022-09-20T20:26:10.354Z,82.72
2022-09-20T20:28:38.262Z,83.25
2022-09-20T20:31:06.546Z,82.73
2022-09-20T20:33:34.210Z,82.59
2022-09-20T20:36:02.509Z,82.90
2022-09-20T20:38:30.335Z,83.28
2022-09-20T20:43:41.455Z,83.98
2022-09-20T20:46:11.502Z,83.58
2022-09-20T20:48:38.708Z,83.43
2022-09-20T20:51:10.166Z,83.29
2022-09-20T20:53:39.908Z,83.66
2022-09-20T20:56:10.679Z,83.06
2022-09-20T20:58:44.825Z,82.89
2022-09-20T21:01:16.821Z,83.81
2022-09-20T21:03:47.513Z,83.01
2022-09-20T21:06:15.883Z,83.62
2022-09-20T21:08:49.116Z,83.35
2022-09-20T21:13:57.971Z,83.39
2022-09-20T21:16:29.994Z,83.52
2022-09-20T21:18:57.656Z,83.48
2022-09-20T21:21:30.082Z,83.74
2022-09-20T21:23:59.305Z,83.33
2022-09-20T21:26:28.615Z,83.64
2022-09-20T21:28:59.291Z,83.09
2022-09-20T21:31:30.500Z,82.96
2022-09-20T21:33:58.287Z,83.42
2022-09-20T21:36:28.310Z,83.86
2022-09-20T21:38:56.034Z,84.01
2022-09-20T21:41:25.816Z,84.18
2022-09-20T21:43:55.493Z,83.78
2022-09-20T21:46:28.586Z,83.67
2022-09-20T21:48:57.948Z,83.69
2022-09-20T21:51:27.122Z,83.66
2022-09-20T21:53:57.671Z,84.23
2022-09-20T21:56:27.782Z,84.11
2022-09-20T21:58:55.596Z,84.02
2022-09-20T22:01:24.971Z,84.00
2022-09-20T22:03:55.144Z,83.94
2022-09-20T22:06:24.646Z,83.92
2022-09-20T22:08:58.528Z,84.21
2022-09-20T22:11:28.763Z,83.69
2022-09-20T22:13:57.291Z,83.97
2022-09-20T22:16:27.910Z,84.60
2022-09-20T22:18:56.255Z,84.37
2022-09-20T22:21:26.571Z,84.30
2022-09-20T22:23:58.105Z,84.03
2022-09-20T22:26:28.972Z,84.08
2022-09-20T22:28:56.333Z,83.66
2022-09-20T22:31:26.390Z,83.71
2022-09-20T22:33:56.136Z,83.61
2022-09-20T22:36:28.730Z,83.83
2022-09-20T22:38:56.438Z,83.82
2022-09-20T22:41:23.974Z,83.89
2022-09-20T22:43:51.098Z,83.78
2022-09-20T22:46:21.582Z,83.96
2022-09-20T22:48:49.526Z,83.81
2022-09-20T22:51:19.068Z,83.62
2022-09-20T22:53:47.719Z,84.05
2022-09-20T22:56:22.213Z,83.93
2022-09-20T22:58:52.059Z,83.36
2022-09-20T23:06:40.739Z,83.76
2022-09-20T23:09:10.306Z,84.34
2022-09-20T23:11:39.435Z,84.57
2022-09-20T23:14:07.168Z,84.74
2022-09-20T23:16:36.802Z,84.74
2022-09-20T23:19:06.396Z,85.24
2022-09-20T23:21:34.460Z,84.99
2022-09-20T23:24:03.902Z,84.81
2022-09-20T23:26:33.842Z,85.10
2022-09-20T23:29:03.464Z,84.71
2022-09-20T23:31:32.163Z,84.71
2022-09-20T23:34:01.129Z,84.96
2022-09-20T23:36:31.391Z,84.88
2022-09-20T23:38:58.689Z,84.79
2022-09-20T23:41:27.609Z,84.45
2022-09-20T23:43:55.369Z,85.07
2022-09-20T23:46:24.186Z,85.02
2022-09-20T23:48:52.441Z,85.11
2022-09-20T23:51:22.882Z,85.22
2022-09-20T23:53:50.706Z,85.24
2022-09-20T23:56:18.370Z,85.16
2022-09-20T23:58:45.936Z,85.05
